Big Bear Station Historical Data
Daily Summary for April 30, 2017 Units:  English    Metric   Both
« Previous Day
Next Day »
Daily Weekly Monthly Yearly Custom
  High: Low: Average:
Temperature: 69.3 °F 30.4 °F 48.5 °F
Dew Point: 29.0 °F 17.2 °F 23.6 °F
Humidity: 79 % 18 % 43 %
Wind Speed: 6.3 mph 0.0 mph 1.9 mph
Wind Gust: -999.0 mph - -
Wind:- - SW
Pressure: 23.62 in 23.55 in -
Precipitation: 0.00 in    
Historical Graphs
 
 
Tabular Data for April 30, 2017
Time Temperature Dew Point Pressure Wind Wind Speed Wind Gust Humidity Rainfall Rate (Hourly)
00:00 35.6 °F 20.6 °F 23.59 in Calm   -999.0 mph 54 % 0 in
00:15 35.2 °F 20.6 °F 23.59 in South 1.1 mph -999.0 mph 55 % 0 in
00:30 34.7 °F 21.4 °F 23.59 in West 2.2 mph -999.0 mph 58 % 0 in
00:45 34.2 °F 21.8 °F 23.60 in Calm   -999.0 mph 60 % 0 in
01:00 34.0 °F 20.4 °F 23.60 in SE 1.7 mph -999.0 mph 57 % 0 in
01:16 34.5 °F 20.8 °F 23.60 in South 2.2 mph -999.0 mph 57 % 0 in
01:31 34.0 °F 19.9 °F 23.60 in Calm   -999.0 mph 56 % 0 in
01:47 34.0 °F 18.7 °F 23.60 in South 2.2 mph -999.0 mph 53 % 0 in
02:02 33.8 °F 17.6 °F 23.60 in South 1.7 mph -999.0 mph 51 % 0 in
02:17 33.3 °F 18.9 °F 23.59 in SSE 1.7 mph -999.0 mph 55 % 0 in
02:33 33.3 °F 18.9 °F 23.59 in SSE 2.2 mph -999.0 mph 55 % 0 in
02:48 33.1 °F 19.1 °F 23.59 in Calm   -999.0 mph 56 % 0 in
03:03 32.5 °F 20.5 °F 23.59 in Calm   -999.0 mph 61 % 0 in
03:19 32.2 °F 22.5 °F 23.59 in SE 2.2 mph -999.0 mph 67 % 0 in
03:34 32.2 °F 21.4 °F 23.59 in SSE 1.7 mph -999.0 mph 64 % 0 in
03:50 32.2 °F 22.8 °F 23.59 in Calm   -999.0 mph 68 % 0 in
04:05 31.8 °F 24.5 °F 23.59 in Calm   -999.0 mph 74 % 0 in
04:21 31.6 °F 24.6 °F 23.59 in South 1.7 mph -999.0 mph 75 % 0 in
04:36 31.3 °F 24.3 °F 23.58 in Calm   -999.0 mph 75 % 0 in
04:52 30.7 °F 23.4 °F 23.59 in Calm   -999.0 mph 74 % 0 in
05:07 30.9 °F 23.3 °F 23.59 in South 1.7 mph -999.0 mph 73 % 0 in
05:22 30.9 °F 21.6 °F 23.58 in South 1.1 mph -999.0 mph 68 % 0 in
05:37 30.7 °F 21.7 °F 23.58 in South 1.7 mph -999.0 mph 69 % 0 in
05:53 30.4 °F 23.4 °F 23.58 in SSE 1.7 mph -999.0 mph 75 % 0 in
06:08 30.4 °F 24.7 °F 23.58 in Calm   -999.0 mph 79 % 0 in
06:23 30.9 °F 25.2 °F 23.59 in Calm   -999.0 mph 79 % 0 in
06:38 30.9 °F 24.5 °F 23.59 in Calm   -999.0 mph 77 % 0 in
06:53 31.5 °F 25.1 °F 23.59 in Calm   -999.0 mph 77 % 0 in
07:09 32.0 °F 25.0 °F 23.59 in Calm   -999.0 mph 75 % 0 in
07:24 33.8 °F 25.1 °F 23.60 in Calm   -999.0 mph 70 % 0 in
07:39 33.3 °F 25.2 °F 23.60 in Calm   -999.0 mph 72 % 0 in
07:55 35.1 °F 27.0 °F 23.60 in Calm   -999.0 mph 72 % 0 in
08:10 37.2 °F 27.3 °F 23.61 in Calm   -999.0 mph 67 % 0 in
08:25 39.2 °F 28.8 °F 23.61 in Calm   -999.0 mph 66 % 0 in
08:40 41.9 °F 27.8 °F 23.61 in Calm   -999.0 mph 57 % 0 in
08:56 44.6 °F 29.0 °F 23.61 in Calm   -999.0 mph 54 % 0 in
09:11 47.3 °F 22.3 °F 23.62 in Calm   -999.0 mph 37 % 0 in
09:26 51.3 °F 20.1 °F 23.61 in Calm   -999.0 mph 29 % 0 in
09:41 52.7 °F 20.5 °F 23.62 in SSW 1.1 mph -999.0 mph 28 % 0 in
09:56 55.4 °F 17.2 °F 23.62 in ESE 1.7 mph -999.0 mph 22 % 0 in
10:12 56.1 °F 21.7 °F 23.62 in WNW 3.7 mph -999.0 mph 26 % 0 in
10:27 57.7 °F 22.1 °F 23.62 in NNW 1.7 mph -999.0 mph 25 % 0 in
10:42 58.8 °F 18.9 °F 23.61 in WNW 2.7 mph -999.0 mph 21 % 0 in
10:57 60.8 °F 24.7 °F 23.61 in North 2.2 mph -999.0 mph 25 % 0 in
11:13 62.2 °F 23.9 °F 23.61 in NNW 4.2 mph -999.0 mph 23 % 0 in
11:28 64.2 °F 23.4 °F 23.61 in North 2.7 mph -999.0 mph 21 % 0 in
11:43 64.6 °F 25.9 °F 23.61 in NE 3.2 mph -999.0 mph 23 % 0 in
11:58 65.7 °F 25.8 °F 23.61 in NNW 4.2 mph -999.0 mph 22 % 0 in
12:14 66.0 °F 23.8 °F 23.61 in NNE 4.7 mph -999.0 mph 20 % 0 in
12:29 66.7 °F 25.5 °F 23.61 in NNW 4.2 mph -999.0 mph 21 % 0 in
12:45 66.7 °F 26.6 °F 23.60 in WNW 5.8 mph -999.0 mph 22 % 0 in
13:00 67.6 °F 26.3 °F 23.60 in NW 5.8 mph -999.0 mph 21 % 0 in
13:15 66.6 °F 24.3 °F 23.59 in NW 3.7 mph -999.0 mph 20 % 0 in
13:31 68.0 °F 25.4 °F 23.59 in WNW 4.7 mph -999.0 mph 20 % 0 in
13:46 66.6 °F 24.3 °F 23.59 in West 2.7 mph -999.0 mph 20 % 0 in
14:01 67.5 °F 25.0 °F 23.59 in West 2.7 mph -999.0 mph 20 % 0 in
14:16 68.0 °F 26.6 °F 23.59 in NW 5.8 mph -999.0 mph 21 % 0 in
14:31 66.7 °F 23.1 °F 23.59 in NW 4.7 mph -999.0 mph 19 % 0 in
14:47 67.5 °F 22.5 °F 23.58 in NNW 3.7 mph -999.0 mph 18 % 0 in
15:02 66.7 °F 21.8 °F 23.58 in ENE 5.3 mph -999.0 mph 18 % 0 in
15:17 67.6 °F 26.3 °F 23.58 in NW 6.3 mph -999.0 mph 21 % 0 in
15:33 65.8 °F 23.6 °F 23.57 in South 2.7 mph -999.0 mph 20 % 0 in
15:48 66.2 °F 21.4 °F 23.56 in SSW 2.2 mph -999.0 mph 18 % 0 in
16:03 66.7 °F 24.3 °F 23.56 in NNW 4.7 mph -999.0 mph 20 % 0 in
16:18 65.8 °F 22.4 °F 23.56 in North 3.2 mph -999.0 mph 19 % 0 in
16:33 65.8 °F 22.4 °F 23.55 in NNE 3.2 mph -999.0 mph 19 % 0 in
16:49 69.3 °F 24.0 °F 23.55 in WNW 4.7 mph -999.0 mph 18 % 0 in
17:04 68.9 °F 24.9 °F 23.55 in WNW 1.7 mph -999.0 mph 19 % 0 in
17:20 67.8 °F 25.2 °F 23.55 in WSW 1.7 mph -999.0 mph 20 % 0 in
17:35 67.1 °F 27.0 °F 23.55 in NNE 3.2 mph -999.0 mph 22 % 0 in
17:50 66.2 °F 27.3 °F 23.55 in WNW 3.7 mph -999.0 mph 23 % 0 in
18:06 65.7 °F 26.9 °F 23.56 in NW 3.7 mph -999.0 mph 23 % 0 in
18:21 65.5 °F 26.7 °F 23.56 in West 1.7 mph -999.0 mph 23 % 0 in
18:36 59.7 °F 24.7 °F 23.56 in East 3.2 mph -999.0 mph 26 % 0 in
18:51 57.2 °F 24.4 °F 23.56 in SE 6.3 mph -999.0 mph 28 % 0 in
19:06 55.4 °F 25.2 °F 23.55 in WNW 1.7 mph -999.0 mph 31 % 0 in
19:22 53.4 °F 25.7 °F 23.55 in WSW 2.2 mph -999.0 mph 34 % 0 in
19:37 51.8 °F 25.0 °F 23.55 in South 1.1 mph -999.0 mph 35 % 0 in
19:52 50.7 °F 26.0 °F 23.56 in Calm   -999.0 mph 38 % 0 in
20:07 49.5 °F 26.2 °F 23.56 in Calm   -999.0 mph 40 % 0 in
20:22 48.4 °F 26.3 °F 23.55 in Calm   -999.0 mph 42 % 0 in
20:38 48.0 °F 26.0 °F 23.56 in Calm   -999.0 mph 42 % 0 in
20:53 46.2 °F 25.5 °F 23.56 in Calm   -999.0 mph 44 % 0 in
21:08 45.1 °F 24.5 °F 23.56 in SSW 1.7 mph -999.0 mph 44 % 0 in
21:23 44.4 °F 24.4 °F 23.56 in South 1.7 mph -999.0 mph 45 % 0 in
21:39 43.7 °F 23.7 °F 23.56 in South 1.7 mph -999.0 mph 45 % 0 in
21:54 43.3 °F 23.9 °F 23.56 in South 1.1 mph -999.0 mph 46 % 0 in
22:09 43.0 °F 22.6 °F 23.56 in South 1.7 mph -999.0 mph 44 % 0 in
22:24 42.6 °F 22.7 °F 23.56 in South 1.1 mph -999.0 mph 45 % 0 in
22:39 41.9 °F 22.1 °F 23.56 in Calm   -999.0 mph 45 % 0 in
22:55 42.1 °F 22.8 °F 23.55 in South 2.2 mph -999.0 mph 46 % 0 in
23:10 41.2 °F 22.5 °F 23.55 in Calm   -999.0 mph 47 % 0 in
23:25 41.0 °F 24.2 °F 23.55 in Calm   -999.0 mph 51 % 0 in
23:40 41.0 °F 23.3 °F 23.55 in Calm   -999.0 mph 49 % 0 in
23:55 40.6 °F 20.4 °F 23.55 in Calm   -999.0 mph 44 % 0 in
Big Bear CA Weather
Compliments of Weather Underground - 1.5 mb